SMRA30 UAOL 200600
AAXX 20061

=
34178 82997 62803 10277 20120 39951 40097 57004 83031=
34199 82999 22704 10289 20044 39973 40091 57007 80001=
34273 82997 62904 10298 20115 30046 40102 58003 83031=
35001 82999 52404 10277 20080 30005 40078 58006 80002=
35007 82998 22204 10289 20065 30003 40086 57009 80001=
35008 42998 32403 10287 20086 30003 40081 57009 82039=
35038 42582 53202 10265 20063 39775 40071 54001 81280=
35120 42598 52903 10284 20084 39948 40085 57006 85900=
35126 42699 32503 10264 20100 39834 40079 57003 81109=
35127 42998 02903 10289 20084 39921 40085 57006=
35138 42697 62905 10271 20042 39755 40075 54000 83130=
35233 42598 32904 10273 20069 39761 40074 57004 82201=34098 82997 62604 10287 20101 30043 40084 58008 82035


SMUS30 KWBC 200600
AAXX 20064